Time;durP1;ratioP1;P1;durP2;ratioP2;P2;SDS_P1;SDS_P2;PMS_P1;PMS_P2;Temp;Humidity;BMP_temperature;BMP_pressure;BME280_temperature;BME280_humidity;BME280_pressure;Samples;Min_cycle;Max_cycle;Signal;HPM_P1;HPM_P2
2022/09/04 00:03:57;;;;;;;1.10;0.80;;;;;;;15.40;100.00;98344.00;15287913;19;20015;-79
2022/09/04 00:09:14;;;;;;;2.03;1.13;;;;;;;15.35;100.00;98349.16;15288785;19;20018;-79
2022/09/04 00:14:22;;;;;;;1.80;1.00;;;;;;;15.24;100.00;98356.78;15284699;19;20011;-79
2022/09/04 00:19:36;;;;;;;1.77;1.00;;;;;;;15.17;100.00;98361.28;15285603;19;20011;-79
2022/09/04 00:24:49;;;;;;;1.27;1.00;;;;;;;15.05;100.00;98360.16;15286534;19;20011;-80
2022/09/04 00:30:00;;;;;;;2.58;1.00;;;;;;;14.98;100.00;98360.06;15285229;19;20039;-81
2022/09/04 00:35:12;;;;;;;1.85;1.10;;;;;;;14.90;100.00;98365.59;15301770;19;20003;-80
2022/09/04 00:40:28;;;;;;;2.47;1.30;;;;;;;14.84;100.00;98375.31;15339495;19;20015;-79
2022/09/04 00:45:52;;;;;;;3.08;1.17;;;;;;;14.73;100.00;98371.25;15341001;19;20006;-79
2022/09/04 00:51:26;;;;;;;1.98;1.30;;;;;;;14.68;100.00;98384.50;15284989;19;20007;-80
2022/09/04 00:57:02;;;;;;;3.55;1.20;;;;;;;14.59;100.00;98388.34;15276075;19;20054;-81
2022/09/04 01:02:16;;;;;;;1.23;1.10;;;;;;;14.50;100.00;98401.13;15276310;19;20785;-80
2022/09/04 01:07:38;;;;;;;1.73;1.08;;;;;;;14.44;100.00;98397.31;15283400;19;20011;-81
2022/09/04 01:12:52;;;;;;;2.40;1.15;;;;;;;14.40;100.00;98414.13;15329972;19;20078;-81
2022/09/04 01:18:09;;;;;;;1.42;1.30;;;;;;;14.33;100.00;98414.03;15306057;19;20021;-80
2022/09/04 01:23:57;;;;;;;1.80;1.10;;;;;;;14.36;100.00;98419.09;15296972;19;20010;-80
2022/09/04 01:29:22;;;;;;;1.63;1.10;;;;;;;14.31;100.00;98424.22;15298293;19;20478;-81
2022/09/04 01:34:42;;;;;;;1.33;1.23;;;;;;;14.27;100.00;98429.16;15283905;19;20025;-79
2022/09/04 01:39:54;;;;;;;2.05;1.35;;;;;;;14.19;100.00;98429.25;15292342;19;20391;-80
2022/09/04 01:45:01;;;;;;;2.38;1.10;;;;;;;14.11;100.00;98432.88;15291780;19;20017;-79
2022/09/04 01:50:12;;;;;;;1.60;1.30;;;;;;;14.05;100.00;98433.63;15296302;19;20014;-80
2022/09/04 01:55:22;;;;;;;;;;;;;;;14.05;100.00;98439.03;15286391;19;20014;-80
2022/09/04 02:00:34;;;;;;;2.60;1.10;;;;;;;13.94;100.00;98442.16;15295306;19;19915;-79
2022/09/04 02:05:50;;;;;;;1.23;1.13;;;;;;;13.92;100.00;98447.78;15287423;19;20050;-80
2022/09/04 02:11:03;;;;;;;1.25;1.10;;;;;;;13.91;100.00;98437.97;15292734;19;20038;-79
2022/09/04 02:16:16;;;;;;;1.33;1.20;;;;;;;13.86;100.00;98438.50;15287039;19;20479;-78
2022/09/04 02:21:29;;;;;;;2.45;1.40;;;;;;;13.80;100.00;98444.66;15294506;19;20018;-79
2022/09/04 02:26:41;;;;;;;2.40;1.15;;;;;;;13.74;100.00;98437.25;15289757;19;20002;-78
2022/09/04 02:31:55;;;;;;;2.13;1.15;;;;;;;13.71;100.00;98448.44;15294557;19;20018;-79
2022/09/04 02:37:08;;;;;;;2.97;1.20;;;;;;;13.65;100.00;98446.47;15289996;19;20500;-79
2022/09/04 02:42:20;;;;;;;2.13;1.20;;;;;;;13.62;100.00;98450.38;15321161;19;20017;-80
2022/09/04 02:47:35;;;;;;;1.90;1.20;;;;;;;13.59;100.00;98449.88;15327065;19;20014;-79
2022/09/04 02:53:01;;;;;;;1.13;0.98;;;;;;;13.59;100.00;98449.88;15280924;19;20606;-79
2022/09/04 02:58:18;;;;;;;2.28;1.20;;;;;;;13.54;100.00;98453.13;15277105;19;20713;-78
2022/09/04 03:03:33;;;;;;;1.42;1.10;;;;;;;13.53;100.00;98449.59;15282433;19;20014;-78
2022/09/04 03:08:44;;;;;;;2.13;1.20;;;;;;;13.50;100.00;98447.25;15287126;19;20034;-78
2022/09/04 03:13:54;;;;;;;1.55;1.10;;;;;;;13.46;100.00;98448.63;15277796;19;20015;-79
2022/09/04 03:19:19;;;;;;;1.30;1.20;;;;;;;13.44;100.00;98447.13;15291619;19;20114;-79
2022/09/04 03:24:30;;;;;;;2.25;1.10;;;;;;;13.34;100.00;98448.16;15285488;19;20014;-80
2022/09/04 03:29:41;;;;;;;1.55;1.10;;;;;;;13.32;100.00;98462.91;15282247;19;20499;-79
2022/09/04 03:34:56;;;;;;;1.88;1.30;;;;;;;13.30;100.00;98456.81;15286434;19;20046;-79
2022/09/04 03:40:22;;;;;;;3.72;1.23;;;;;;;13.24;100.00;98453.78;15292405;19;20038;-80
2022/09/04 03:45:38;;;;;;;1.88;1.08;;;;;;;13.21;100.00;98459.56;15274937;19;20028;-79
2022/09/04 03:50:56;;;;;;;1.15;1.05;;;;;;;13.20;100.00;98467.84;15278233;19;20002;-80
2022/09/04 03:56:27;;;;;;;3.50;1.40;;;;;;;13.13;100.00;98473.13;15277645;19;20022;-79
2022/09/04 04:01:44;;;;;;;4.00;1.23;;;;;;;13.08;100.00;98481.75;15273125;19;20267;-78
2022/09/04 04:07:00;;;;;;;1.33;1.20;;;;;;;13.06;100.00;98474.84;15275125;19;20030;-79
2022/09/04 04:12:26;;;;;;;1.35;1.23;;;;;;;13.03;100.00;98483.31;15281135;19;20006;-81
2022/09/04 04:17:49;;;;;;;1.38;1.10;;;;;;;12.97;100.00;98490.28;15304272;19;20018;-79
2022/09/04 04:23:16;;;;;;;1.83;1.20;;;;;;;12.91;100.00;98491.81;15282860;19;20038;-79
2022/09/04 04:28:37;;;;;;;2.17;1.20;;;;;;;12.87;100.00;98501.31;15283378;19;20014;-80
2022/09/04 04:33:51;;;;;;;2.38;1.30;;;;;;;12.82;100.00;98503.69;15273870;19;20010;-81
2022/09/04 04:39:11;;;;;;;1.60;1.50;;;;;;;12.80;100.00;98511.13;15281791;19;20022;-78
2022/09/04 04:44:20;;;;;;;1.85;1.40;;;;;;;12.77;100.00;98519.56;15291264;19;20043;-81
2022/09/04 04:50:00;;;;;;;1.30;1.20;;;;;;;12.76;100.00;98531.38;15290667;19;20014;-79
2022/09/04 04:55:20;;;;;;;2.00;1.23;;;;;;;12.72;100.00;98530.06;15292275;19;20050;-81
2022/09/04 05:00:29;;;;;;;1.27;1.20;;;;;;;12.71;100.00;98539.19;15295722;19;20006;-80
2022/09/04 05:05:59;;;;;;;1.70;1.38;;;;;;;12.70;100.00;98545.59;15288103;19;20267;-81
2022/09/04 05:11:14;;;;;;;2.20;1.20;;;;;;;12.71;100.00;98556.25;15295016;19;20038;-79
2022/09/04 05:16:26;;;;;;;1.40;1.30;;;;;;;12.72;100.00;98551.69;15287949;19;20007;-77
2022/09/04 05:21:40;;;;;;;2.42;1.10;;;;;;;12.74;100.00;98560.47;15289890;19;20808;-79
2022/09/04 05:26:56;;;;;;;1.20;1.10;;;;;;;12.76;100.00;98569.25;15289505;19;20665;-78
2022/09/04 05:32:22;;;;;;;1.35;1.25;;;;;;;12.78;100.00;98578.88;15289803;19;20018;-78
2022/09/04 05:37:32;;;;;;;1.55;1.20;;;;;;;12.81;100.00;98582.28;15309540;19;20376;-78
2022/09/04 05:42:51;;;;;;;1.40;1.30;;;;;;;12.87;100.00;98593.25;15279298;19;20529;-76
2022/09/04 05:48:08;;;;;;;2.78;1.40;;;;;;;12.93;100.00;98603.34;15294017;19;20022;-79
2022/09/04 05:53:37;;;;;;;2.33;1.40;;;;;;;13.01;100.00;98602.50;15283432;19;20054;-77
2022/09/04 05:59:00;;;;;;;1.30;1.20;;;;;;;13.14;100.00;98618.19;14777187;19;9999997;-77
2022/09/04 06:04:26;;;;;;;1.73;1.30;;;;;;;13.21;100.00;98621.91;15306158;19;20019;-79
2022/09/04 06:09:52;;;;;;;1.63;1.30;;;;;;;13.25;100.00;98627.81;15352335;19;20006;-77
2022/09/04 06:15:16;;;;;;;2.17;1.55;;;;;;;13.33;100.00;98629.63;15281867;19;20010;-79
2022/09/04 06:20:44;;;;;;;3.08;1.73;;;;;;;13.37;100.00;98636.38;15285072;19;20010;-77
2022/09/04 06:26:23;;;;;;;1.45;1.30;;;;;;;13.41;100.00;98646.69;15276504;19;20015;-78
2022/09/04 06:32:03;;;;;;;1.40;1.27;;;;;;;13.44;100.00;98645.53;15282731;19;20037;-77
2022/09/04 06:37:19;;;;;;;2.30;1.35;;;;;;;13.55;100.00;98644.28;15278567;19;20015;-78
2022/09/04 06:42:36;;;;;;;1.40;1.30;;;;;;;13.65;100.00;98649.50;15287543;19;20003;-80
2022/09/04 06:47:57;;;;;;;1.58;1.15;;;;;;;13.77;100.00;98650.81;15285526;19;20018;-78
2022/09/04 06:53:17;;;;;;;1.53;1.40;;;;;;;13.90;100.00;98660.25;15287767;19;20014;-78
2022/09/04 06:58:47;;;;;;;1.40;1.20;;;;;;;14.06;100.00;98653.88;15284049;19;20116;-80
2022/09/04 07:04:05;;;;;;;1.45;1.35;;;;;;;14.21;100.00;98653.97;15289091;19;20010;-79
2022/09/04 07:09:17;;;;;;;2.58;1.67;;;;;;;14.35;100.00;98655.06;15295197;19;20039;-78
2022/09/04 07:14:43;;;;;;;1.50;1.40;;;;;;;14.51;100.00;98667.66;15297234;19;20020;-78
2022/09/04 07:20:16;;;;;;;4.05;1.40;;;;;;;14.69;100.00;98667.38;15299080;19;20014;-78
2022/09/04 07:25:26;;;;;;;1.45;1.30;;;;;;;14.84;100.00;98670.13;15282448;19;20034;-79
2022/09/04 07:30:38;;;;;;;4.22;1.40;;;;;;;15.02;100.00;98673.34;15278619;19;20014;-79
2022/09/04 07:35:53;;;;;;;2.58;1.20;;;;;;;15.25;100.00;98670.59;15287891;19;20010;-79
2022/09/04 07:41:09;;;;;;;3.33;1.40;;;;;;;15.43;100.00;98660.41;15289012;19;20014;-78
2022/09/04 07:46:22;;;;;;;2.30;1.52;;;;;;;15.62;100.00;98650.84;15280280;19;20034;-78
2022/09/04 07:51:46;;;;;;;2.10;1.70;;;;;;;15.80;100.00;98661.31;15283913;19;20360;-78
2022/09/04 07:57:10;;;;;;;2.22;1.70;;;;;;;16.03;100.00;98658.50;15280343;19;20283;-79
2022/09/04 08:02:27;;;;;;;3.75;1.70;;;;;;;16.28;100.00;98660.88;15280719;19;20014;-78
2022/09/04 08:08:03;;;;;;;3.40;1.65;;;;;;;16.46;100.00;98661.25;15290760;19;20015;-79
2022/09/04 08:13:32;;;;;;;2.45;1.60;;;;;;;16.70;100.00;98674.69;15284135;19;20038;-78
2022/09/04 08:19:03;;;;;;;1.67;1.40;;;;;;;16.92;100.00;98670.91;15287216;19;20070;-77
2022/09/04 08:24:44;;;;;;;1.50;1.40;;;;;;;17.10;100.00;98685.97;15274489;19;20038;-79
2022/09/04 08:30:05;;;;;;;1.80;1.60;;;;;;;17.34;100.00;98692.00;15280968;19;20017;-76
2022/09/04 08:35:19;;;;;;;1.83;1.50;;;;;;;17.61;100.00;98681.25;15277151;19;20010;-78
2022/09/04 08:40:52;;;;;;;1.88;1.13;;;;;;;17.89;100.00;98694.00;15279668;19;20006;-81
2022/09/04 08:46:26;;;;;;;3.15;1.25;;;;;;;18.06;100.00;98692.63;15299221;19;20028;-79
2022/09/04 08:52:01;;;;;;;1.27;1.17;;;;;;;18.28;100.00;98700.72;15279511;19;20010;-77
2022/09/04 08:57:37;;;;;;;1.50;1.10;;;;;;;18.50;100.00;98703.28;15280956;19;20043;-79
2022/09/04 09:03:17;;;;;;;1.58;1.20;;;;;;;18.69;100.00;98701.66;15288676;19;20037;-78
2022/09/04 09:08:41;;;;;;;1.52;0.90;;;;;;;18.87;100.00;98698.31;15284875;19;20010;-80
2022/09/04 09:14:18;;;;;;;0.70;0.70;;;;;;;19.14;100.00;98698.34;15279350;19;20015;-80
2022/09/04 09:19:42;;;;;;;1.63;0.90;;;;;;;19.39;100.00;98693.91;15282426;19;20021;-79
2022/09/04 09:25:11;;;;;;;1.27;0.95;;;;;;;19.53;100.00;98694.72;15274562;19;20387;-81
2022/09/04 09:30:21;;;;;;;1.88;0.73;;;;;;;19.75;100.00;98701.84;15294901;19;20030;-81
2022/09/04 09:35:57;;;;;;;1.77;0.80;;;;;;;19.88;100.00;98700.97;15340951;19;20038;-78
2022/09/04 09:41:33;;;;;;;1.50;0.80;;;;;;;20.09;100.00;98700.72;15332063;19;20372;-80
2022/09/04 09:47:08;;;;;;;1.75;0.90;;;;;;;20.28;100.00;98706.31;15310627;19;20033;-79
2022/09/04 09:52:47;;;;;;;1.80;0.80;;;;;;;20.46;100.00;98700.94;15302798;19;20015;-79
2022/09/04 09:58:22;;;;;;;2.30;0.82;;;;;;;20.63;100.00;98703.19;15342349;19;20041;-80
2022/09/04 10:03:53;;;;;;;1.27;0.70;;;;;;;20.69;100.00;98699.56;15324747;19;20086;-81
2022/09/04 10:09:36;;;;;;;1.10;1.00;;;;;;;20.82;100.00;98701.41;15292241;19;20022;-81
2022/09/04 10:15:03;;;;;;;0.65;0.65;;;;;;;20.93;100.00;98692.47;15301932;19;20038;-80
2022/09/04 10:20:52;;;;;;;1.13;0.82;;;;;;;21.25;100.00;98700.63;15311469;19;20019;-79
2022/09/04 10:26:11;;;;;;;0.65;0.60;;;;;;;21.40;100.00;98691.22;15312560;19;20372;-79
2022/09/04 10:31:41;;;;;;;0.88;0.70;;;;;;;21.41;100.00;98681.94;15298023;19;20017;-78
2022/09/04 10:37:00;;;;;;;1.33;0.68;;;;;;;21.58;100.00;98686.88;15302400;19;20023;-79
2022/09/04 10:42:28;;;;;;;1.42;0.70;;;;;;;21.90;100.00;98689.50;15286528;19;20046;-78
2022/09/04 10:48:03;;;;;;;1.88;0.70;;;;;;;21.95;100.00;98681.41;15294867;19;20034;-76
2022/09/04 10:53:42;;;;;;;1.02;0.80;;;;;;;22.01;100.00;98685.97;15289584;19;20015;-77
2022/09/04 10:59:09;;;;;;;4.50;1.33;;;;;;;22.08;100.00;98688.66;15297255;19;20029;-77
2022/09/04 11:04:35;;;;;;;1.10;0.60;;;;;;;22.11;100.00;98689.03;15290577;19;20309;-78
2022/09/04 11:09:56;;;;;;;1.63;0.60;;;;;;;22.22;100.00;98690.16;15295341;19;20033;-78
2022/09/04 11:15:26;;;;;;;1.25;0.60;;;;;;;22.40;100.00;98689.25;15285418;19;20016;-79
2022/09/04 11:21:13;;;;;;;0.95;0.70;;;;;;;22.58;100.00;98687.59;15302942;19;20018;-81
2022/09/04 11:26:48;;;;;;;1.10;0.70;;;;;;;22.72;100.00;98682.72;15305799;19;20019;-79
2022/09/04 11:32:12;;;;;;;2.70;0.80;;;;;;;22.87;99.32;98677.63;15327079;19;20006;-80
2022/09/04 11:37:56;;;;;;;2.40;0.60;;;;;;;22.96;93.43;98664.41;15296859;19;20057;-77
2022/09/04 11:43:21;;;;;;;1.73;0.77;;;;;;;23.27;98.38;98672.59;15309482;19;20014;-80
2022/09/04 11:48:54;;;;;;;2.42;0.70;;;;;;;23.29;91.07;98670.44;15308351;19;20022;-78
2022/09/04 11:54:22;;;;;;;0.75;0.50;;;;;;;23.54;100.00;98667.44;15292854;19;20447;-80
2022/09/04 11:59:57;;;;;;;3.10;0.60;;;;;;;23.70;91.33;98672.19;15296267;19;20010;-78
2022/09/04 12:05:18;;;;;;;1.05;0.50;;;;;;;23.87;86.42;98674.22;15301926;19;20030;-77
2022/09/04 12:10:38;;;;;;;1.50;0.50;;;;;;;24.13;82.68;98672.03;15301021;19;20002;-80
2022/09/04 12:16:07;;;;;;;2.38;0.45;;;;;;;24.31;78.74;98663.59;15295279;19;20010;-80
2022/09/04 12:21:47;;;;;;;0.20;0.20;;;;;;;24.30;73.68;98650.91;15291349;19;20011;-80
2022/09/04 12:27:16;;;;;;;1.35;0.40;;;;;;;24.66;72.98;98647.13;15303684;19;20018;-79
2022/09/04 12:33:03;;;;;;;0.50;0.30;;;;;;;25.02;64.36;98647.78;15309879;19;20082;-81
2022/09/04 12:38:37;;;;;;;1.13;0.30;;;;;;;25.40;65.82;98646.16;15304088;19;20015;-82
2022/09/04 12:43:57;;;;;;;2.00;0.30;;;;;;;25.28;61.38;98653.72;15305892;19;20149;-82
2022/09/04 12:49:17;;;;;;;0.40;0.40;;;;;;;25.58;64.29;98647.03;15301673;19;20010;-80
2022/09/04 12:54:34;;;;;;;0.63;0.30;;;;;;;25.79;59.33;98650.88;15303040;19;20015;-80
2022/09/04 13:00:01;;;;;;;1.85;0.32;;;;;;;26.11;57.89;98652.94;15301980;19;20483;-83
2022/09/04 13:05:33;;;;;;;0.40;0.30;;;;;;;26.30;56.29;98656.22;15317602;19;20010;-81
2022/09/04 13:10:49;;;;;;;0.52;0.20;;;;;;;26.37;52.70;98664.28;15316968;19;20015;-80
2022/09/04 13:16:00;;;;;;;0.13;0.13;;;;;;;26.67;53.58;98663.78;15318472;19;20467;-79
2022/09/04 13:21:16;;;;;;;0.20;0.20;;;;;;;26.85;52.21;98659.03;15318615;19;20017;-78
2022/09/04 13:26:50;;;;;;;0.20;0.20;;;;;;;27.06;51.44;98671.91;15315436;19;20014;-83
2022/09/04 13:32:09;;;;;;;0.73;0.40;;;;;;;27.13;51.41;98670.84;15313714;19;20038;-81
2022/09/04 13:37:28;;;;;;;0.60;0.30;;;;;;;27.39;52.14;98685.72;15310632;19;20019;-83
2022/09/04 13:43:03;;;;;;;3.10;0.40;;;;;;;26.94;53.80;98675.94;15315766;19;20007;-83
2022/09/04 13:48:15;;;;;;;0.45;0.40;;;;;;;27.04;55.27;98679.63;15322402;19;20002;-83
2022/09/04 13:53:24;;;;;;;0.57;0.30;;;;;;;27.14;54.46;98675.28;15361336;19;20058;-88
2022/09/04 13:58:34;;;;;;;2.35;0.52;;;;;;;27.35;53.67;98674.34;15330829;19;20010;-84
2022/09/04 14:03:47;;;;;;;3.65;0.50;;;;;;;27.92;54.90;98685.81;15307074;19;20008;-83
2022/09/04 14:08:54;;;;;;;2.15;0.45;;;;;;;27.07;53.80;98678.28;15314324;19;20020;-87
2022/09/04 14:14:37;;;;;;;0.40;0.40;;;;;;;26.86;54.57;98674.50;15311019;19;20010;-86
2022/09/04 14:19:56;;;;;;;0.50;0.35;;;;;;;26.85;55.16;98676.41;15310614;19;20024;-87
2022/09/04 14:25:11;;;;;;;1.38;0.50;;;;;;;26.75;57.67;98682.66;15314518;19;20023;-85
2022/09/04 14:30:21;;;;;;;1.58;0.50;;;;;;;26.80;64.61;98681.91;15315695;19;20042;-82
2022/09/04 14:35:35;;;;;;;1.35;0.60;;;;;;;27.31;64.73;98681.53;15313787;19;20021;-83
2022/09/04 14:40:47;;;;;;;0.75;0.40;;;;;;;27.78;62.30;98692.91;15316265;19;20014;-83
2022/09/04 14:46:10;;;;;;;1.67;0.40;;;;;;;27.71;62.16;98693.16;15315196;19;20043;-85
2022/09/04 14:51:32;;;;;;;1.65;0.60;;;;;;;27.43;64.40;98694.31;15313694;19;20029;-83
2022/09/04 14:56:46;;;;;;;2.40;0.50;;;;;;;27.21;63.86;98696.09;15313184;19;20024;-83
2022/09/04 15:02:13;;;;;;;1.38;0.40;;;;;;;27.11;66.88;98700.72;15246777;19;20010;-85
2022/09/04 15:07:29;;;;;;;2.35;0.40;;;;;;;26.85;64.29;98697.72;15306967;19;20007;-85
2022/09/04 15:12:37;;;;;;;1.20;0.50;;;;;;;26.88;63.51;98702.69;15302422;19;20046;-85
2022/09/04 15:17:50;;;;;;;1.15;0.30;;;;;;;26.86;64.43;98696.63;15299627;19;20022;-87
2022/09/04 15:23:00;;;;;;;2.08;0.50;;;;;;;27.02;62.85;98706.72;15308375;19;20006;-85
2022/09/04 15:28:12;;;;;;;1.80;0.20;;;;;;;27.52;59.88;98706.59;15299022;19;20014;-88
2022/09/04 15:33:21;;;;;;;0.50;0.47;;;;;;;27.94;59.03;98708.50;15295633;19;20032;-86
2022/09/04 15:38:29;;;;;;;1.95;0.50;;;;;;;28.44;57.24;98710.97;15309102;19;20007;-85
2022/09/04 15:43:41;;;;;;;0.95;0.30;;;;;;;28.78;54.35;98710.53;15306430;19;20042;-84
2022/09/04 15:48:53;;;;;;;1.48;0.40;;;;;;;28.94;54.34;98708.59;15310849;19;20108;-86
2022/09/04 15:54:25;;;;;;;1.38;0.40;;;;;;;28.67;54.71;98717.13;15309274;19;20027;-85
2022/09/04 15:59:45;;;;;;;1.58;0.30;;;;;;;28.32;55.53;98721.44;15307890;19;20015;-83
2022/09/04 16:04:58;;;;;;;0.37;0.27;;;;;;;27.96;56.48;98727.63;15302939;19;20553;-84
2022/09/04 16:10:14;;;;;;;0.50;0.40;;;;;;;27.65;58.50;98738.50;15309648;19;20072;-89
2022/09/04 16:15:26;;;;;;;1.08;0.50;;;;;;;27.42;60.18;98731.41;15305970;19;20400;-84
2022/09/04 16:20:39;;;;;;;1.08;0.40;;;;;;;27.06;62.03;98729.13;15302325;19;20030;-82
2022/09/04 16:25:50;;;;;;;0.90;0.35;;;;;;;26.81;64.27;98726.97;15310414;19;20021;-85
2022/09/04 16:30:59;;;;;;;1.75;0.50;;;;;;;26.63;65.16;98733.66;15351307;19;20018;-84
2022/09/04 16:36:10;;;;;;;1.65;0.40;;;;;;;26.50;67.67;98732.13;15316379;19;20021;-86
2022/09/04 16:41:24;;;;;;;1.38;0.50;;;;;;;26.35;70.30;98725.34;15308808;19;20487;-84
2022/09/04 16:46:34;;;;;;;0.63;0.52;;;;;;;26.37;72.72;98731.44;15299164;19;20007;-86
2022/09/04 16:51:44;;;;;;;2.03;0.60;;;;;;;26.36;72.86;98723.38;15303454;19;20010;-86
2022/09/04 16:56:57;;;;;;;1.00;0.52;;;;;;;26.30;74.43;98739.06;15294900;19;20369;-85
2022/09/04 17:02:23;;;;;;;1.45;0.70;;;;;;;26.22;75.77;98739.53;15301849;19;20128;-85
2022/09/04 17:07:46;;;;;;;2.35;0.60;;;;;;;26.11;76.70;98744.91;15295846;19;20013;-85
2022/09/04 17:13:00;;;;;;;2.15;0.60;;;;;;;26.06;78.32;98742.03;15300480;19;20455;-82
2022/09/04 17:18:10;;;;;;;1.10;0.55;;;;;;;26.00;80.68;98738.38;15299896;19;20003;-83
2022/09/04 17:23:24;;;;;;;0.60;0.50;;;;;;;25.96;83.76;98739.16;15308616;19;20010;-83
2022/09/04 17:29:00;;;;;;;0.63;0.55;;;;;;;25.51;83.42;98741.00;15288687;19;20027;-82
2022/09/04 17:34:50;;;;;;;2.15;0.65;;;;;;;24.96;82.91;98740.56;15295318;19;20421;-81
2022/09/04 17:40:23;;;;;;;2.60;0.68;;;;;;;24.55;87.27;98750.78;15287926;19;20346;-82
2022/09/04 17:46:01;;;;;;;1.70;0.70;;;;;;;24.19;91.38;98748.13;15293666;19;20421;-82
2022/09/04 17:51:08;;;;;;;1.77;0.70;;;;;;;23.92;92.24;98745.88;15293047;19;20017;-84
2022/09/04 17:56:19;;;;;;;3.05;0.90;;;;;;;23.67;95.32;98752.47;15294375;19;20098;-83
2022/09/04 18:01:30;;;;;;;3.35;0.70;;;;;;;23.47;99.31;98751.97;15296680;19;20018;-80
2022/09/04 18:06:40;;;;;;;2.42;0.80;;;;;;;23.30;100.00;98768.31;15297072;19;20512;-80
2022/09/04 18:11:51;;;;;;;1.40;0.70;;;;;;;23.05;100.00;98772.91;15309775;19;20575;-78
2022/09/04 18:17:15;;;;;;;1.33;0.80;;;;;;;22.88;100.00;98780.09;15349989;19;20017;-77
2022/09/04 18:22:29;;;;;;;0.93;0.70;;;;;;;22.68;100.00;98781.22;15312141;19;20488;-78
2022/09/04 18:27:43;;;;;;;2.78;0.80;;;;;;;22.47;100.00;98791.63;15296399;19;20010;-79
2022/09/04 18:32:54;;;;;;;3.65;0.90;;;;;;;22.35;100.00;98787.94;15291000;19;20031;-77
2022/09/04 18:38:30;;;;;;;2.60;0.90;;;;;;;22.20;100.00;98787.50;15293626;19;20030;-80
2022/09/04 18:43:43;;;;;;;0.90;0.77;;;;;;;22.04;100.00;98787.03;15296409;19;20010;-82
2022/09/04 18:49:21;;;;;;;2.30;1.00;;;;;;;21.89;100.00;98790.13;15306111;19;20014;-81
2022/09/04 18:54:51;;;;;;;3.08;0.82;;;;;;;21.75;100.00;98796.81;15300801;19;20043;-82
2022/09/04 19:00:06;;;;;;;2.40;0.85;;;;;;;21.65;100.00;98800.06;15297050;19;20028;-80
2022/09/04 19:05:18;;;;;;;1.20;0.80;;;;;;;21.51;100.00;98808.38;15302471;19;20011;-80
2022/09/04 19:10:28;;;;;;;3.05;0.80;;;;;;;21.40;100.00;98807.16;15305330;19;20011;-81
2022/09/04 19:15:54;;;;;;;0.88;0.70;;;;;;;21.34;100.00;98818.22;15296456;19;20011;-80
2022/09/04 19:21:20;;;;;;;1.10;0.60;;;;;;;21.21;100.00;98825.47;15293398;19;20086;-79
2022/09/04 19:26:37;;;;;;;0.90;0.80;;;;;;;21.17;100.00;98824.22;15298108;19;20022;-79
2022/09/04 19:31:49;;;;;;;1.95;0.90;;;;;;;21.05;100.00;98824.06;15307508;19;20050;-81
2022/09/04 19:37:03;;;;;;;2.63;0.80;;;;;;;20.96;100.00;98828.13;15307085;19;20011;-82
2022/09/04 19:42:32;;;;;;;1.65;0.90;;;;;;;20.86;100.00;98828.63;15280725;19;20006;-80
2022/09/04 19:48:19;;;;;;;1.08;0.90;;;;;;;20.79;100.00;98827.78;15297038;19;20628;-78
2022/09/04 19:53:34;;;;;;;3.47;1.00;;;;;;;20.70;100.00;98837.28;15293976;19;20034;-81
2022/09/04 19:58:58;;;;;;;2.10;0.70;;;;;;;20.63;100.00;98840.91;15293305;19;20354;-79
2022/09/04 20:04:11;;;;;;;0.97;0.80;;;;;;;20.56;100.00;98844.72;15292148;19;20019;-79
2022/09/04 20:09:27;;;;;;;1.13;0.70;;;;;;;20.47;100.00;98842.19;15288509;19;20674;-79
2022/09/04 20:14:39;;;;;;;2.35;0.90;;;;;;;20.39;100.00;98852.56;15288570;19;20018;-79
2022/09/04 20:19:50;;;;;;;1.95;0.88;;;;;;;20.31;100.00;98843.50;15288724;19;20018;-80
2022/09/04 20:25:14;;;;;;;1.48;0.80;;;;;;;20.27;100.00;98850.50;15290731;19;20393;-81
2022/09/04 20:30:23;;;;;;;2.75;0.90;;;;;;;20.19;100.00;98847.97;15291396;19;20015;-79
2022/09/04 20:35:35;;;;;;;1.05;0.88;;;;;;;20.15;100.00;98850.28;15293859;19;20011;-79
2022/09/04 20:40:47;;;;;;;1.52;0.80;;;;;;;20.07;100.00;98852.41;15290410;19;20027;-80
2022/09/04 20:45:55;;;;;;;;;;;;;;;20.04;100.00;98858.31;15291552;19;20026;-74
2022/09/04 20:51:26;;;;;;;2.10;0.80;;;;;;;19.98;100.00;98852.63;15304733;19;19911;-78
2022/09/04 20:57:04;;;;;;;4.43;1.00;;;;;;;19.92;100.00;98858.97;15338414;19;19995;-77
2022/09/04 21:02:43;;;;;;;1.83;0.90;;;;;;;19.90;100.00;98862.94;15322687;19;20018;-78
2022/09/04 21:08:18;;;;;;;1.90;0.95;;;;;;;19.83;100.00;98865.63;15337210;19;20011;-78
2022/09/04 21:13:33;;;;;;;2.15;0.85;;;;;;;19.76;100.00;98867.53;15317580;19;20046;-79
2022/09/04 21:18:52;;;;;;;2.10;0.80;;;;;;;19.63;100.00;98863.75;15303425;19;20014;-81
2022/09/04 21:24:56;;;;;;;1.13;0.90;;;;;;;19.53;100.00;98860.59;15288206;19;20010;-81
2022/09/04 21:30:09;;;;;;;1.33;0.93;;;;;;;19.42;100.00;98869.41;15305546;19;20014;-80
2022/09/04 21:35:21;;;;;;;0.93;0.82;;;;;;;19.30;100.00;98872.75;15292807;19;20492;-81
2022/09/04 21:40:44;;;;;;;3.13;1.15;;;;;;;19.20;100.00;98872.31;15312799;19;20247;-81
2022/09/04 21:46:18;;;;;;;0.98;0.90;;;;;;;19.08;100.00;98872.06;15250742;19;20038;-78
2022/09/04 21:51:37;;;;;;;1.30;1.00;;;;;;;19.01;100.00;98877.50;15288678;19;20477;-78
2022/09/04 21:57:07;;;;;;;1.67;1.13;;;;;;;18.97;100.00;98876.25;15287242;19;20483;-80
2022/09/04 22:02:52;;;;;;;5.05;1.05;;;;;;;18.90;100.00;98876.19;15285493;19;20011;-80
2022/09/04 22:08:23;;;;;;;1.60;1.00;;;;;;;18.86;100.00;98877.63;15291192;19;20029;-77
2022/09/04 22:14:00;;;;;;;3.30;1.05;;;;;;;18.82;100.00;98867.31;15289132;19;20031;-78
2022/09/04 22:19:19;;;;;;;1.23;0.90;;;;;;;18.76;100.00;98874.44;15276235;19;20014;-77
2022/09/04 22:24:47;;;;;;;1.58;1.00;;;;;;;18.73;100.00;98877.56;15278767;19;20010;-76
2022/09/04 22:30:05;;;;;;;1.23;1.00;;;;;;;18.68;100.00;98874.63;15254144;19;20022;-78
2022/09/04 22:35:48;;;;;;;1.98;1.10;;;;;;;18.62;100.00;98879.84;15283387;19;20014;-77
2022/09/04 22:41:07;;;;;;;4.22;1.00;;;;;;;18.58;100.00;98877.72;15283275;19;20038;-78
2022/09/04 22:46:33;;;;;;;2.47;1.33;;;;;;;18.51;100.00;98877.69;15290582;19;20014;-78
2022/09/04 22:52:06;;;;;;;1.90;0.90;;;;;;;18.46;100.00;98886.47;15279433;19;20021;-78
2022/09/04 22:57:21;;;;;;;2.53;0.90;;;;;;;18.39;100.00;98884.75;15286343;19;20018;-77
2022/09/04 23:02:40;;;;;;;2.63;1.02;;;;;;;18.33;100.00;98881.78;15277537;19;20042;-77
2022/09/04 23:08:27;;;;;;;1.42;1.08;;;;;;;18.29;100.00;98874.19;15283629;19;20014;-78
2022/09/04 23:14:19;;;;;;;1.50;1.00;;;;;;;18.23;100.00;98886.72;15286548;19;20014;-78
2022/09/04 23:19:50;;;;;;;1.15;1.00;;;;;;;18.16;100.00;98880.41;15283009;19;20021;-78
2022/09/04 23:25:43;;;;;;;1.55;1.30;;;;;;;18.13;100.00;98876.19;15280714;19;20419;-78
2022/09/04 23:31:36;;;;;;;1.33;0.95;;;;;;;18.07;100.00;98887.06;15285363;19;20863;-78
2022/09/04 23:37:18;;;;;;;1.20;1.00;;;;;;;18.03;100.00;98892.06;15282708;19;20050;-78
2022/09/04 23:42:40;;;;;;;;;;;;;;;17.94;100.00;98895.94;15285713;19;20018;-78
2022/09/04 23:48:17;;;;;;;2.20;1.23;;;;;;;17.84;100.00;98886.22;15286312;19;19915;-79
2022/09/04 23:53:37;;;;;;;1.65;1.20;;;;;;;17.75;100.00;98884.69;15279795;19;21235;-79
